sensor_id;sensor_type;location;lat;lon;timestamp;P1;durP1;ratioP1;P2;durP2;ratioP2
7398;SDS011;3740;50.700;7.184;2024-01-30T00:01:10;17.73;;;14.93;;
7398;SDS011;3740;50.700;7.184;2024-01-30T00:03:36;15.50;;;13.90;;
7398;SDS011;3740;50.700;7.184;2024-01-30T00:06:02;15.40;;;13.80;;
7398;SDS011;3740;50.700;7.184;2024-01-30T00:08:28;13.90;;;12.33;;
7398;SDS011;3740;50.700;7.184;2024-01-30T00:10:54;14.37;;;12.87;;
7398;SDS011;3740;50.700;7.184;2024-01-30T00:13:20;14.73;;;13.13;;
7398;SDS011;3740;50.700;7.184;2024-01-30T00:15:45;15.80;;;14.13;;
7398;SDS011;3740;50.700;7.184;2024-01-30T00:18:11;15.03;;;13.47;;
7398;SDS011;3740;50.700;7.184;2024-01-30T00:20:36;13.33;;;11.93;;
7398;SDS011;3740;50.700;7.184;2024-01-30T00:23:02;14.13;;;12.43;;
7398;SDS011;3740;50.700;7.184;2024-01-30T00:25:28;13.87;;;12.50;;
7398;SDS011;3740;50.700;7.184;2024-01-30T00:27:53;12.90;;;11.10;;
7398;SDS011;3740;50.700;7.184;2024-01-30T00:30:19;12.93;;;11.60;;
7398;SDS011;3740;50.700;7.184;2024-01-30T00:32:45;12.87;;;11.57;;
7398;SDS011;3740;50.700;7.184;2024-01-30T00:35:11;13.00;;;11.60;;
7398;SDS011;3740;50.700;7.184;2024-01-30T00:37:36;13.03;;;11.33;;
7398;SDS011;3740;50.700;7.184;2024-01-30T00:40:02;11.77;;;10.53;;
7398;SDS011;3740;50.700;7.184;2024-01-30T00:42:28;12.23;;;11.03;;
7398;SDS011;3740;50.700;7.184;2024-01-30T00:44:54;13.67;;;11.10;;
7398;SDS011;3740;50.700;7.184;2024-01-30T00:47:19;13.00;;;11.60;;
7398;SDS011;3740;50.700;7.184;2024-01-30T00:49:45;13.37;;;12.07;;
7398;SDS011;3740;50.700;7.184;2024-01-30T00:52:11;11.90;;;10.70;;
7398;SDS011;3740;50.700;7.184;2024-01-30T00:54:36;12.33;;;11.07;;
7398;SDS011;3740;50.700;7.184;2024-01-30T00:57:02;12.97;;;11.67;;
7398;SDS011;3740;50.700;7.184;2024-01-30T00:59:28;13.87;;;12.27;;
7398;SDS011;3740;50.700;7.184;2024-01-30T01:01:53;12.00;;;10.63;;
7398;SDS011;3740;50.700;7.184;2024-01-30T01:04:19;11.27;;;10.17;;
7398;SDS011;3740;50.700;7.184;2024-01-30T01:06:46;11.27;;;10.17;;
7398;SDS011;3740;50.700;7.184;2024-01-30T01:09:12;10.90;;;9.80;;
7398;SDS011;3740;50.700;7.184;2024-01-30T01:11:37;11.07;;;9.90;;
7398;SDS011;3740;50.700;7.184;2024-01-30T01:14:03;11.67;;;10.47;;
7398;SDS011;3740;50.700;7.184;2024-01-30T01:16:29;11.27;;;10.17;;
7398;SDS011;3740;50.700;7.184;2024-01-30T01:18:55;11.10;;;10.00;;
7398;SDS011;3740;50.700;7.184;2024-01-30T01:21:21;12.13;;;10.83;;
7398;SDS011;3740;50.700;7.184;2024-01-30T01:23:46;13.00;;;11.00;;
7398;SDS011;3740;50.700;7.184;2024-01-30T01:26:12;12.33;;;11.17;;
7398;SDS011;3740;50.700;7.184;2024-01-30T01:28:39;12.70;;;11.50;;
7398;SDS011;3740;50.700;7.184;2024-01-30T01:31:06;13.30;;;11.90;;
7398;SDS011;3740;50.700;7.184;2024-01-30T01:33:32;12.27;;;10.27;;
7398;SDS011;3740;50.700;7.184;2024-01-30T01:35:58;11.07;;;10.07;;
7398;SDS011;3740;50.700;7.184;2024-01-30T01:38:24;12.53;;;11.33;;
7398;SDS011;3740;50.700;7.184;2024-01-30T01:40:49;10.83;;;9.73;;
7398;SDS011;3740;50.700;7.184;2024-01-30T01:43:16;10.67;;;9.70;;
7398;SDS011;3740;50.700;7.184;2024-01-30T01:45:41;11.27;;;10.17;;
7398;SDS011;3740;50.700;7.184;2024-01-30T01:48:07;12.73;;;11.43;;
7398;SDS011;3740;50.700;7.184;2024-01-30T01:50:34;11.87;;;10.67;;
7398;SDS011;3740;50.700;7.184;2024-01-30T01:53:00;12.90;;;11.60;;
7398;SDS011;3740;50.700;7.184;2024-01-30T01:55:27;11.47;;;10.47;;
7398;SDS011;3740;50.700;7.184;2024-01-30T01:57:54;11.70;;;10.50;;
7398;SDS011;3740;50.700;7.184;2024-01-30T02:00:21;12.23;;;11.03;;
7398;SDS011;3740;50.700;7.184;2024-01-30T02:02:47;11.70;;;10.60;;
7398;SDS011;3740;50.700;7.184;2024-01-30T02:05:12;11.97;;;10.57;;
7398;SDS011;3740;50.700;7.184;2024-01-30T02:07:39;13.43;;;11.67;;
7398;SDS011;3740;50.700;7.184;2024-01-30T02:10:05;12.60;;;11.30;;
7398;SDS011;3740;50.700;7.184;2024-01-30T02:12:32;12.13;;;10.93;;
7398;SDS011;3740;50.700;7.184;2024-01-30T02:14:58;12.40;;;11.27;;
7398;SDS011;3740;50.700;7.184;2024-01-30T02:17:23;12.30;;;11.00;;
7398;SDS011;3740;50.700;7.184;2024-01-30T02:19:49;12.23;;;11.00;;
7398;SDS011;3740;50.700;7.184;2024-01-30T02:22:14;12.83;;;11.30;;
7398;SDS011;3740;50.700;7.184;2024-01-30T02:24:40;12.57;;;11.17;;
7398;SDS011;3740;50.700;7.184;2024-01-30T02:27:06;13.80;;;12.33;;
7398;SDS011;3740;50.700;7.184;2024-01-30T02:29:31;13.30;;;11.83;;
7398;SDS011;3740;50.700;7.184;2024-01-30T02:31:57;12.80;;;11.50;;
7398;SDS011;3740;50.700;7.184;2024-01-30T02:34:23;12.50;;;11.30;;
7398;SDS011;3740;50.700;7.184;2024-01-30T02:36:48;11.33;;;10.17;;
7398;SDS011;3740;50.700;7.184;2024-01-30T02:39:14;12.33;;;10.63;;
7398;SDS011;3740;50.700;7.184;2024-01-30T02:41:39;11.63;;;10.47;;
7398;SDS011;3740;50.700;7.184;2024-01-30T02:44:05;11.57;;;10.47;;
7398;SDS011;3740;50.700;7.184;2024-01-30T02:46:30;11.60;;;10.43;;
7398;SDS011;3740;50.700;7.184;2024-01-30T02:48:56;11.37;;;10.27;;
7398;SDS011;3740;50.700;7.184;2024-01-30T02:51:22;11.40;;;10.27;;
7398;SDS011;3740;50.700;7.184;2024-01-30T02:53:47;11.70;;;10.50;;
7398;SDS011;3740;50.700;7.184;2024-01-30T02:56:13;11.53;;;10.43;;
7398;SDS011;3740;50.700;7.184;2024-01-30T02:58:39;11.77;;;10.70;;
7398;SDS011;3740;50.700;7.184;2024-01-30T03:01:05;13.60;;;12.10;;
7398;SDS011;3740;50.700;7.184;2024-01-30T03:03:31;14.10;;;12.60;;
7398;SDS011;3740;50.700;7.184;2024-01-30T03:05:57;14.37;;;12.97;;
7398;SDS011;3740;50.700;7.184;2024-01-30T03:08:22;14.47;;;11.77;;
7398;SDS011;3740;50.700;7.184;2024-01-30T03:10:48;14.83;;;13.33;;
7398;SDS011;3740;50.700;7.184;2024-01-30T03:13:14;14.50;;;13.10;;
7398;SDS011;3740;50.700;7.184;2024-01-30T03:15:39;14.33;;;12.90;;
7398;SDS011;3740;50.700;7.184;2024-01-30T03:18:05;13.27;;;11.97;;
7398;SDS011;3740;50.700;7.184;2024-01-30T03:20:30;13.13;;;11.83;;
7398;SDS011;3740;50.700;7.184;2024-01-30T03:22:56;13.23;;;11.83;;
7398;SDS011;3740;50.700;7.184;2024-01-30T03:25:22;13.67;;;12.20;;
7398;SDS011;3740;50.700;7.184;2024-01-30T03:27:47;13.33;;;11.73;;
7398;SDS011;3740;50.700;7.184;2024-01-30T03:30:13;12.93;;;11.53;;
7398;SDS011;3740;50.700;7.184;2024-01-30T03:32:39;12.80;;;10.43;;
7398;SDS011;3740;50.700;7.184;2024-01-30T03:35:05;11.97;;;10.37;;
7398;SDS011;3740;50.700;7.184;2024-01-30T03:37:30;11.90;;;10.77;;
7398;SDS011;3740;50.700;7.184;2024-01-30T03:39:56;11.10;;;10.10;;
7398;SDS011;3740;50.700;7.184;2024-01-30T03:42:22;12.07;;;10.93;;
7398;SDS011;3740;50.700;7.184;2024-01-30T03:44:48;12.67;;;10.67;;
7398;SDS011;3740;50.700;7.184;2024-01-30T03:47:13;11.83;;;10.67;;
7398;SDS011;3740;50.700;7.184;2024-01-30T03:49:39;12.30;;;11.10;;
7398;SDS011;3740;50.700;7.184;2024-01-30T03:52:05;12.10;;;10.90;;
7398;SDS011;3740;50.700;7.184;2024-01-30T03:54:30;11.83;;;10.73;;
7398;SDS011;3740;50.700;7.184;2024-01-30T03:56:56;12.13;;;10.83;;
7398;SDS011;3740;50.700;7.184;2024-01-30T03:59:22;11.93;;;10.73;;
7398;SDS011;3740;50.700;7.184;2024-01-30T04:01:49;11.47;;;10.37;;
7398;SDS011;3740;50.700;7.184;2024-01-30T04:04:16;11.93;;;10.73;;
7398;SDS011;3740;50.700;7.184;2024-01-30T04:06:42;11.87;;;10.67;;
7398;SDS011;3740;50.700;7.184;2024-01-30T04:09:08;11.13;;;10.13;;
7398;SDS011;3740;50.700;7.184;2024-01-30T04:11:34;12.20;;;10.20;;
7398;SDS011;3740;50.700;7.184;2024-01-30T04:14:00;12.37;;;11.07;;
7398;SDS011;3740;50.700;7.184;2024-01-30T04:16:25;11.87;;;10.40;;
7398;SDS011;3740;50.700;7.184;2024-01-30T04:18:51;11.43;;;10.23;;
7398;SDS011;3740;50.700;7.184;2024-01-30T04:21:17;11.13;;;10.03;;
7398;SDS011;3740;50.700;7.184;2024-01-30T04:23:43;11.37;;;10.27;;
7398;SDS011;3740;50.700;7.184;2024-01-30T04:26:08;11.10;;;10.10;;
7398;SDS011;3740;50.700;7.184;2024-01-30T04:28:34;10.60;;;9.60;;
7398;SDS011;3740;50.700;7.184;2024-01-30T04:30:59;11.37;;;10.20;;
7398;SDS011;3740;50.700;7.184;2024-01-30T04:33:25;10.10;;;9.10;;
7398;SDS011;3740;50.700;7.184;2024-01-30T04:35:50;11.20;;;9.50;;
7398;SDS011;3740;50.700;7.184;2024-01-30T04:38:16;11.60;;;9.07;;
7398;SDS011;3740;50.700;7.184;2024-01-30T04:40:42;10.27;;;9.33;;
7398;SDS011;3740;50.700;7.184;2024-01-30T04:43:08;10.70;;;9.70;;
7398;SDS011;3740;50.700;7.184;2024-01-30T04:45:34;10.73;;;9.63;;
7398;SDS011;3740;50.700;7.184;2024-01-30T04:48:00;11.23;;;10.13;;
7398;SDS011;3740;50.700;7.184;2024-01-30T04:50:25;11.63;;;10.43;;
7398;SDS011;3740;50.700;7.184;2024-01-30T04:52:51;10.90;;;9.90;;
7398;SDS011;3740;50.700;7.184;2024-01-30T04:55:17;12.27;;;11.03;;
7398;SDS011;3740;50.700;7.184;2024-01-30T04:57:43;12.43;;;11.23;;
7398;SDS011;3740;50.700;7.184;2024-01-30T05:00:08;13.33;;;11.63;;
7398;SDS011;3740;50.700;7.184;2024-01-30T05:02:34;14.87;;;11.83;;
7398;SDS011;3740;50.700;7.184;2024-01-30T05:05:00;12.13;;;10.90;;
7398;SDS011;3740;50.700;7.184;2024-01-30T05:07:26;13.17;;;11.77;;
7398;SDS011;3740;50.700;7.184;2024-01-30T05:09:51;13.63;;;12.27;;
7398;SDS011;3740;50.700;7.184;2024-01-30T05:12:17;13.60;;;10.93;;
7398;SDS011;3740;50.700;7.184;2024-01-30T05:14:43;12.47;;;11.17;;
7398;SDS011;3740;50.700;7.184;2024-01-30T05:17:08;12.53;;;11.27;;
7398;SDS011;3740;50.700;7.184;2024-01-30T05:19:35;12.23;;;10.93;;
7398;SDS011;3740;50.700;7.184;2024-01-30T05:22:01;12.87;;;11.67;;
7398;SDS011;3740;50.700;7.184;2024-01-30T05:24:26;11.67;;;10.57;;
7398;SDS011;3740;50.700;7.184;2024-01-30T05:26:52;13.00;;;11.60;;
7398;SDS011;3740;50.700;7.184;2024-01-30T05:29:17;11.77;;;10.57;;
7398;SDS011;3740;50.700;7.184;2024-01-30T05:31:43;12.23;;;11.03;;
7398;SDS011;3740;50.700;7.184;2024-01-30T05:34:08;12.43;;;11.23;;
7398;SDS011;3740;50.700;7.184;2024-01-30T05:36:34;12.07;;;10.77;;
7398;SDS011;3740;50.700;7.184;2024-01-30T05:39:00;12.37;;;11.17;;
7398;SDS011;3740;50.700;7.184;2024-01-30T05:41:25;12.30;;;11.03;;
7398;SDS011;3740;50.700;7.184;2024-01-30T05:43:51;12.17;;;10.97;;
7398;SDS011;3740;50.700;7.184;2024-01-30T05:46:16;13.10;;;11.50;;
7398;SDS011;3740;50.700;7.184;2024-01-30T05:48:42;13.23;;;11.87;;
7398;SDS011;3740;50.700;7.184;2024-01-30T05:51:08;12.37;;;10.83;;
7398;SDS011;3740;50.700;7.184;2024-01-30T05:53:34;12.23;;;11.00;;
7398;SDS011;3740;50.700;7.184;2024-01-30T05:56:02;12.47;;;11.20;;
7398;SDS011;3740;50.700;7.184;2024-01-30T05:58:28;12.80;;;11.43;;
7398;SDS011;3740;50.700;7.184;2024-01-30T06:00:54;11.97;;;10.87;;
7398;SDS011;3740;50.700;7.184;2024-01-30T06:03:20;12.97;;;11.67;;
7398;SDS011;3740;50.700;7.184;2024-01-30T06:05:45;12.47;;;10.73;;
7398;SDS011;3740;50.700;7.184;2024-01-30T06:08:11;12.07;;;10.87;;
7398;SDS011;3740;50.700;7.184;2024-01-30T06:10:37;11.67;;;10.57;;
7398;SDS011;3740;50.700;7.184;2024-01-30T06:13:02;12.00;;;10.93;;
7398;SDS011;3740;50.700;7.184;2024-01-30T06:15:28;10.87;;;9.87;;
7398;SDS011;3740;50.700;7.184;2024-01-30T06:17:54;11.10;;;10.10;;
7398;SDS011;3740;50.700;7.184;2024-01-30T06:20:20;11.00;;;9.83;;
7398;SDS011;3740;50.700;7.184;2024-01-30T06:22:46;11.63;;;10.43;;
7398;SDS011;3740;50.700;7.184;2024-01-30T06:25:12;12.27;;;11.03;;
7398;SDS011;3740;50.700;7.184;2024-01-30T06:27:37;12.07;;;10.87;;
7398;SDS011;3740;50.700;7.184;2024-01-30T06:30:03;12.23;;;10.97;;
7398;SDS011;3740;50.700;7.184;2024-01-30T06:32:30;19.00;;;15.43;;
7398;SDS011;3740;50.700;7.184;2024-01-30T06:34:59;14.17;;;12.70;;
7398;SDS011;3740;50.700;7.184;2024-01-30T06:37:28;13.70;;;11.33;;
7398;SDS011;3740;50.700;7.184;2024-01-30T06:39:53;14.07;;;12.57;;
7398;SDS011;3740;50.700;7.184;2024-01-30T06:42:19;14.23;;;11.90;;
7398;SDS011;3740;50.700;7.184;2024-01-30T06:44:44;13.97;;;12.57;;
7398;SDS011;3740;50.700;7.184;2024-01-30T06:47:10;13.30;;;12.00;;
7398;SDS011;3740;50.700;7.184;2024-01-30T06:49:36;12.93;;;11.67;;
7398;SDS011;3740;50.700;7.184;2024-01-30T06:52:05;13.10;;;11.87;;
7398;SDS011;3740;50.700;7.184;2024-01-30T06:54:31;13.20;;;11.70;;
7398;SDS011;3740;50.700;7.184;2024-01-30T06:56:57;12.60;;;11.23;;
7398;SDS011;3740;50.700;7.184;2024-01-30T06:59:23;12.07;;;10.97;;
7398;SDS011;3740;50.700;7.184;2024-01-30T07:01:49;13.30;;;12.00;;
7398;SDS011;3740;50.700;7.184;2024-01-30T07:04:15;13.90;;;12.50;;
7398;SDS011;3740;50.700;7.184;2024-01-30T07:06:41;16.10;;;12.27;;
7398;SDS011;3740;50.700;7.184;2024-01-30T07:09:06;12.50;;;11.20;;
7398;SDS011;3740;50.700;7.184;2024-01-30T07:11:33;12.50;;;11.40;;
7398;SDS011;3740;50.700;7.184;2024-01-30T07:13:59;12.13;;;11.03;;
7398;SDS011;3740;50.700;7.184;2024-01-30T07:16:24;13.50;;;11.13;;
7398;SDS011;3740;50.700;7.184;2024-01-30T07:18:50;16.13;;;14.53;;
7398;SDS011;3740;50.700;7.184;2024-01-30T07:21:16;21.97;;;19.83;;
7398;SDS011;3740;50.700;7.184;2024-01-30T07:23:42;29.80;;;27.00;;
7398;SDS011;3740;50.700;7.184;2024-01-30T07:26:08;24.73;;;22.43;;
7398;SDS011;3740;50.700;7.184;2024-01-30T07:28:34;20.30;;;18.40;;
7398;SDS011;3740;50.700;7.184;2024-01-30T07:31:00;18.07;;;16.17;;
7398;SDS011;3740;50.700;7.184;2024-01-30T07:33:26;16.77;;;15.27;;
7398;SDS011;3740;50.700;7.184;2024-01-30T07:35:52;18.43;;;16.47;;
7398;SDS011;3740;50.700;7.184;2024-01-30T07:38:18;16.70;;;13.40;;
7398;SDS011;3740;50.700;7.184;2024-01-30T07:40:43;13.70;;;12.30;;
7398;SDS011;3740;50.700;7.184;2024-01-30T07:43:09;13.43;;;12.03;;
7398;SDS011;3740;50.700;7.184;2024-01-30T07:45:35;13.13;;;11.83;;
7398;SDS011;3740;50.700;7.184;2024-01-30T07:48:02;12.87;;;11.70;;
7398;SDS011;3740;50.700;7.184;2024-01-30T07:50:28;13.30;;;12.03;;
7398;SDS011;3740;50.700;7.184;2024-01-30T07:52:55;14.50;;;13.00;;
7398;SDS011;3740;50.700;7.184;2024-01-30T07:55:21;14.07;;;12.63;;
7398;SDS011;3740;50.700;7.184;2024-01-30T07:57:51;13.77;;;12.23;;
7398;SDS011;3740;50.700;7.184;2024-01-30T08:00:17;13.83;;;12.23;;
7398;SDS011;3740;50.700;7.184;2024-01-30T08:02:44;14.50;;;13.10;;
7398;SDS011;3740;50.700;7.184;2024-01-30T08:05:10;16.40;;;14.70;;
7398;SDS011;3740;50.700;7.184;2024-01-30T08:07:36;15.40;;;13.90;;
7398;SDS011;3740;50.700;7.184;2024-01-30T08:10:02;12.97;;;11.53;;
7398;SDS011;3740;50.700;7.184;2024-01-30T08:12:28;13.53;;;12.07;;
7398;SDS011;3740;50.700;7.184;2024-01-30T08:14:54;14.07;;;12.43;;
7398;SDS011;3740;50.700;7.184;2024-01-30T08:17:19;14.20;;;12.70;;
7398;SDS011;3740;50.700;7.184;2024-01-30T08:19:45;13.03;;;11.73;;
7398;SDS011;3740;50.700;7.184;2024-01-30T08:22:11;13.30;;;11.07;;
7398;SDS011;3740;50.700;7.184;2024-01-30T08:24:37;13.33;;;12.03;;
7398;SDS011;3740;50.700;7.184;2024-01-30T08:27:05;13.47;;;12.07;;
7398;SDS011;3740;50.700;7.184;2024-01-30T08:29:31;13.70;;;12.30;;
7398;SDS011;3740;50.700;7.184;2024-01-30T08:31:57;13.80;;;12.35;;
7398;SDS011;3740;50.700;7.184;2024-01-30T08:34:24;13.63;;;12.33;;
7398;SDS011;3740;50.700;7.184;2024-01-30T08:36:49;14.07;;;12.10;;
7398;SDS011;3740;50.700;7.184;2024-01-30T08:39:15;13.47;;;11.70;;
7398;SDS011;3740;50.700;7.184;2024-01-30T08:41:41;13.13;;;11.73;;
7398;SDS011;3740;50.700;7.184;2024-01-30T08:44:06;12.90;;;11.60;;
7398;SDS011;3740;50.700;7.184;2024-01-30T08:46:32;13.20;;;11.80;;
7398;SDS011;3740;50.700;7.184;2024-01-30T08:48:59;12.87;;;11.10;;
7398;SDS011;3740;50.700;7.184;2024-01-30T08:51:24;12.30;;;11.00;;
7398;SDS011;3740;50.700;7.184;2024-01-30T08:53:50;12.70;;;11.37;;
7398;SDS011;3740;50.700;7.184;2024-01-30T08:56:17;12.70;;;11.40;;
7398;SDS011;3740;50.700;7.184;2024-01-30T08:58:43;13.33;;;11.97;;
7398;SDS011;3740;50.700;7.184;2024-01-30T09:01:08;12.87;;;11.50;;
7398;SDS011;3740;50.700;7.184;2024-01-30T09:03:34;11.83;;;10.57;;
7398;SDS011;3740;50.700;7.184;2024-01-30T09:06:01;13.03;;;10.43;;
7398;SDS011;3740;50.700;7.184;2024-01-30T09:08:27;13.77;;;11.10;;
7398;SDS011;3740;50.700;7.184;2024-01-30T09:10:53;12.30;;;10.90;;
7398;SDS011;3740;50.700;7.184;2024-01-30T09:13:18;13.93;;;11.53;;
7398;SDS011;3740;50.700;7.184;2024-01-30T09:15:44;13.20;;;11.90;;
7398;SDS011;3740;50.700;7.184;2024-01-30T09:18:09;13.47;;;11.93;;
7398;SDS011;3740;50.700;7.184;2024-01-30T09:20:35;13.33;;;11.93;;
7398;SDS011;3740;50.700;7.184;2024-01-30T09:23:01;13.93;;;12.03;;
7398;SDS011;3740;50.700;7.184;2024-01-30T09:25:26;18.13;;;12.23;;
7398;SDS011;3740;50.700;7.184;2024-01-30T09:27:52;13.37;;;12.00;;
7398;SDS011;3740;50.700;7.184;2024-01-30T09:30:17;13.30;;;12.00;;
7398;SDS011;3740;50.700;7.184;2024-01-30T09:32:43;13.20;;;11.90;;
7398;SDS011;3740;50.700;7.184;2024-01-30T09:35:09;12.67;;;11.37;;
7398;SDS011;3740;50.700;7.184;2024-01-30T09:37:34;12.60;;;11.37;;
7398;SDS011;3740;50.700;7.184;2024-01-30T09:40:00;12.03;;;10.93;;
7398;SDS011;3740;50.700;7.184;2024-01-30T09:42:35;12.23;;;11.07;;
7398;SDS011;3740;50.700;7.184;2024-01-30T09:45:02;12.33;;;10.70;;
7398;SDS011;3740;50.700;7.184;2024-01-30T09:47:39;12.73;;;11.47;;
7398;SDS011;3740;50.700;7.184;2024-01-30T09:50:09;12.33;;;11.03;;
7398;SDS011;3740;50.700;7.184;2024-01-30T09:52:36;13.33;;;11.03;;
7398;SDS011;3740;50.700;7.184;2024-01-30T09:55:02;12.00;;;10.80;;
7398;SDS011;3740;50.700;7.184;2024-01-30T09:57:28;15.77;;;11.20;;
7398;SDS011;3740;50.700;7.184;2024-01-30T09:59:54;13.40;;;10.37;;
7398;SDS011;3740;50.700;7.184;2024-01-30T10:02:20;12.13;;;10.27;;
7398;SDS011;3740;50.700;7.184;2024-01-30T10:04:50;12.63;;;9.87;;
7398;SDS011;3740;50.700;7.184;2024-01-30T10:07:17;11.93;;;10.53;;
7398;SDS011;3740;50.700;7.184;2024-01-30T10:09:43;11.30;;;9.97;;
7398;SDS011;3740;50.700;7.184;2024-01-30T10:12:09;11.93;;;10.67;;
7398;SDS011;3740;50.700;7.184;2024-01-30T10:14:38;12.13;;;9.97;;
7398;SDS011;3740;50.700;7.184;2024-01-30T10:17:04;11.90;;;10.30;;
7398;SDS011;3740;50.700;7.184;2024-01-30T10:19:30;11.57;;;9.37;;
7398;SDS011;3740;50.700;7.184;2024-01-30T10:21:56;11.60;;;10.00;;
7398;SDS011;3740;50.700;7.184;2024-01-30T10:24:25;12.30;;;10.57;;
7398;SDS011;3740;50.700;7.184;2024-01-30T10:26:51;12.63;;;10.03;;
7398;SDS011;3740;50.700;7.184;2024-01-30T10:29:19;10.90;;;9.47;;
7398;SDS011;3740;50.700;7.184;2024-01-30T10:31:44;11.77;;;9.13;;
7398;SDS011;3740;50.700;7.184;2024-01-30T10:34:10;12.03;;;9.93;;
7398;SDS011;3740;50.700;7.184;2024-01-30T10:36:42;12.67;;;10.83;;
7398;SDS011;3740;50.700;7.184;2024-01-30T10:39:13;13.77;;;12.37;;
7398;SDS011;3740;50.700;7.184;2024-01-30T10:41:44;30.97;;;21.83;;
7398;SDS011;3740;50.700;7.184;2024-01-30T10:44:13;19.97;;;16.40;;
7398;SDS011;3740;50.700;7.184;2024-01-30T10:46:43;13.07;;;10.93;;
7398;SDS011;3740;50.700;7.184;2024-01-30T10:49:15;14.47;;;11.97;;
7398;SDS011;3740;50.700;7.184;2024-01-30T10:51:41;13.53;;;11.83;;
7398;SDS011;3740;50.700;7.184;2024-01-30T10:54:07;13.33;;;10.27;;
7398;SDS011;3740;50.700;7.184;2024-01-30T10:56:34;10.70;;;9.60;;
7398;SDS011;3740;50.700;7.184;2024-01-30T10:59:00;12.43;;;10.80;;
7398;SDS011;3740;50.700;7.184;2024-01-30T11:01:26;13.43;;;10.73;;
7398;SDS011;3740;50.700;7.184;2024-01-30T11:03:53;12.63;;;10.87;;
7398;SDS011;3740;50.700;7.184;2024-01-30T11:06:25;12.27;;;10.37;;
7398;SDS011;3740;50.700;7.184;2024-01-30T11:09:04;12.00;;;10.70;;
7398;SDS011;3740;50.700;7.184;2024-01-30T11:14:26;11.67;;;10.47;;
7398;SDS011;3740;50.700;7.184;2024-01-30T11:16:56;11.70;;;10.50;;
7398;SDS011;3740;50.700;7.184;2024-01-30T11:19:23;13.60;;;10.83;;
7398;SDS011;3740;50.700;7.184;2024-01-30T11:21:51;12.90;;;11.40;;
7398;SDS011;3740;50.700;7.184;2024-01-30T11:24:22;14.20;;;12.20;;
7398;SDS011;3740;50.700;7.184;2024-01-30T11:26:48;13.77;;;11.53;;
7398;SDS011;3740;50.700;7.184;2024-01-30T11:29:18;12.93;;;10.70;;
7398;SDS011;3740;50.700;7.184;2024-01-30T11:31:57;12.90;;;11.17;;
7398;SDS011;3740;50.700;7.184;2024-01-30T11:34:24;13.67;;;11.57;;
7398;SDS011;3740;50.700;7.184;2024-01-30T11:36:55;12.97;;;11.50;;
7398;SDS011;3740;50.700;7.184;2024-01-30T11:39:27;13.60;;;12.20;;
7398;SDS011;3740;50.700;7.184;2024-01-30T11:41:54;16.40;;;12.80;;
7398;SDS011;3740;50.700;7.184;2024-01-30T11:44:20;13.80;;;12.27;;
7398;SDS011;3740;50.700;7.184;2024-01-30T11:46:49;14.40;;;12.73;;
7398;SDS011;3740;50.700;7.184;2024-01-30T11:49:16;13.10;;;11.80;;
7398;SDS011;3740;50.700;7.184;2024-01-30T11:51:42;13.13;;;11.83;;
7398;SDS011;3740;50.700;7.184;2024-01-30T11:54:08;13.47;;;12.13;;
7398;SDS011;3740;50.700;7.184;2024-01-30T11:56:34;13.50;;;11.40;;
7398;SDS011;3740;50.700;7.184;2024-01-30T11:58:59;13.13;;;11.33;;
7398;SDS011;3740;50.700;7.184;2024-01-30T12:01:29;14.37;;;11.63;;
7398;SDS011;3740;50.700;7.184;2024-01-30T12:03:55;12.67;;;11.47;;
7398;SDS011;3740;50.700;7.184;2024-01-30T12:06:22;12.30;;;10.73;;
7398;SDS011;3740;50.700;7.184;2024-01-30T12:08:57;12.90;;;11.43;;
7398;SDS011;3740;50.700;7.184;2024-01-30T12:11:24;13.83;;;12.20;;
7398;SDS011;3740;50.700;7.184;2024-01-30T12:13:51;12.33;;;10.87;;
7398;SDS011;3740;50.700;7.184;2024-01-30T12:16:18;13.00;;;11.03;;
7398;SDS011;3740;50.700;7.184;2024-01-30T12:18:44;12.33;;;11.07;;
7398;SDS011;3740;50.700;7.184;2024-01-30T12:21:10;14.60;;;12.10;;
7398;SDS011;3740;50.700;7.184;2024-01-30T12:23:35;14.53;;;11.83;;
7398;SDS011;3740;50.700;7.184;2024-01-30T12:26:01;23.03;;;12.50;;
7398;SDS011;3740;50.700;7.184;2024-01-30T12:28:28;47.60;;;17.53;;
7398;SDS011;3740;50.700;7.184;2024-01-30T12:31:01;45.00;;;15.87;;
7398;SDS011;3740;50.700;7.184;2024-01-30T12:33:30;31.53;;;15.03;;
7398;SDS011;3740;50.700;7.184;2024-01-30T12:35:56;53.13;;;18.40;;
7398;SDS011;3740;50.700;7.184;2024-01-30T12:38:23;31.20;;;15.53;;
7398;SDS011;3740;50.700;7.184;2024-01-30T12:40:50;20.77;;;12.67;;
7398;SDS011;3740;50.700;7.184;2024-01-30T12:43:21;20.43;;;12.80;;
7398;SDS011;3740;50.700;7.184;2024-01-30T12:45:49;18.43;;;12.40;;
7398;SDS011;3740;50.700;7.184;2024-01-30T12:48:15;15.47;;;13.87;;
7398;SDS011;3740;50.700;7.184;2024-01-30T12:50:41;16.80;;;14.20;;
7398;SDS011;3740;50.700;7.184;2024-01-30T12:53:06;13.53;;;11.00;;
7398;SDS011;3740;50.700;7.184;2024-01-30T12:55:34;14.03;;;11.90;;
7398;SDS011;3740;50.700;7.184;2024-01-30T12:57:59;11.73;;;10.53;;
7398;SDS011;3740;50.700;7.184;2024-01-30T13:00:25;14.37;;;12.33;;
7398;SDS011;3740;50.700;7.184;2024-01-30T13:02:50;23.00;;;18.37;;
7398;SDS011;3740;50.700;7.184;2024-01-30T13:05:16;26.77;;;21.87;;
7398;SDS011;3740;50.700;7.184;2024-01-30T13:07:42;15.70;;;12.80;;
7398;SDS011;3740;50.700;7.184;2024-01-30T13:10:08;20.53;;;18.13;;
7398;SDS011;3740;50.700;7.184;2024-01-30T13:12:33;35.90;;;25.50;;
7398;SDS011;3740;50.700;7.184;2024-01-30T13:14:59;22.60;;;18.97;;
7398;SDS011;3740;50.700;7.184;2024-01-30T13:17:29;29.47;;;22.13;;
7398;SDS011;3740;50.700;7.184;2024-01-30T13:19:55;19.60;;;14.53;;
7398;SDS011;3740;50.700;7.184;2024-01-30T13:22:21;17.87;;;13.10;;
7398;SDS011;3740;50.700;7.184;2024-01-30T13:24:46;18.30;;;15.93;;
7398;SDS011;3740;50.700;7.184;2024-01-30T13:27:12;31.13;;;24.80;;
7398;SDS011;3740;50.700;7.184;2024-01-30T13:29:38;26.90;;;20.30;;
7398;SDS011;3740;50.700;7.184;2024-01-30T13:32:04;23.47;;;18.13;;
7398;SDS011;3740;50.700;7.184;2024-01-30T13:34:30;15.10;;;12.50;;
7398;SDS011;3740;50.700;7.184;2024-01-30T13:36:56;13.67;;;11.60;;
7398;SDS011;3740;50.700;7.184;2024-01-30T13:39:21;17.03;;;13.27;;
7398;SDS011;3740;50.700;7.184;2024-01-30T13:41:48;18.77;;;14.93;;
7398;SDS011;3740;50.700;7.184;2024-01-30T13:44:14;19.40;;;14.70;;
7398;SDS011;3740;50.700;7.184;2024-01-30T13:46:41;14.90;;;12.53;;
7398;SDS011;3740;50.700;7.184;2024-01-30T13:49:07;12.13;;;10.93;;
7398;SDS011;3740;50.700;7.184;2024-01-30T13:51:32;12.63;;;10.50;;
7398;SDS011;3740;50.700;7.184;2024-01-30T13:53:58;11.63;;;10.33;;
7398;SDS011;3740;50.700;7.184;2024-01-30T13:56:24;12.70;;;11.37;;
7398;SDS011;3740;50.700;7.184;2024-01-30T13:58:51;16.03;;;11.50;;
7398;SDS011;3740;50.700;7.184;2024-01-30T14:01:17;14.23;;;10.70;;
7398;SDS011;3740;50.700;7.184;2024-01-30T14:03:42;11.33;;;10.23;;
7398;SDS011;3740;50.700;7.184;2024-01-30T14:06:08;11.63;;;10.53;;
7398;SDS011;3740;50.700;7.184;2024-01-30T14:08:34;14.67;;;10.87;;
7398;SDS011;3740;50.700;7.184;2024-01-30T14:10:59;10.97;;;9.80;;
7398;SDS011;3740;50.700;7.184;2024-01-30T14:13:25;11.17;;;10.07;;
7398;SDS011;3740;50.700;7.184;2024-01-30T14:15:51;11.47;;;9.70;;
7398;SDS011;3740;50.700;7.184;2024-01-30T14:18:17;16.60;;;13.53;;
7398;SDS011;3740;50.700;7.184;2024-01-30T14:20:43;17.00;;;13.07;;
7398;SDS011;3740;50.700;7.184;2024-01-30T14:23:09;14.33;;;11.43;;
7398;SDS011;3740;50.700;7.184;2024-01-30T14:25:37;13.20;;;10.40;;
7398;SDS011;3740;50.700;7.184;2024-01-30T14:28:03;11.00;;;9.87;;
7398;SDS011;3740;50.700;7.184;2024-01-30T14:30:29;12.43;;;11.13;;
7398;SDS011;3740;50.700;7.184;2024-01-30T14:32:54;27.50;;;17.50;;
7398;SDS011;3740;50.700;7.184;2024-01-30T14:35:21;16.70;;;12.50;;
7398;SDS011;3740;50.700;7.184;2024-01-30T14:37:47;12.23;;;10.10;;
7398;SDS011;3740;50.700;7.184;2024-01-30T14:40:13;13.73;;;11.10;;
7398;SDS011;3740;50.700;7.184;2024-01-30T14:42:38;12.13;;;10.30;;
7398;SDS011;3740;50.700;7.184;2024-01-30T14:45:07;12.43;;;10.57;;